createdAt,value
2017-12-06T00:00:04.173Z,7.18
2017-12-06T00:01:09.215Z,7.18
2017-12-06T00:02:13.538Z,7.29
2017-12-06T00:03:17.757Z,7.20
2017-12-06T00:04:22.132Z,7.20
2017-12-06T00:05:27.296Z,7.21
2017-12-06T00:06:31.568Z,7.19
2017-12-06T00:07:35.967Z,7.23
2017-12-06T00:08:41.505Z,7.20
2017-12-06T00:09:45.686Z,7.25
2017-12-06T00:10:50.009Z,7.16
2017-12-06T00:11:54.263Z,7.16
2017-12-06T00:13:02.531Z,7.18
2017-12-06T00:16:13.298Z,7.23
2017-12-06T00:17:17.766Z,7.18
2017-12-06T00:18:22.350Z,7.16
2017-12-06T00:19:26.879Z,7.14
2017-12-06T00:20:31.564Z,7.20
2017-12-06T00:21:36.681Z,7.22
2017-12-06T00:22:41.026Z,7.17
2017-12-06T00:23:46.101Z,7.16
2017-12-06T00:24:51.092Z,7.12
2017-12-06T00:25:55.776Z,7.14
2017-12-06T00:27:00.063Z,7.10
2017-12-06T00:28:04.271Z,7.12
2017-12-06T00:29:08.630Z,7.15
2017-12-06T00:30:14.146Z,7.19
2017-12-06T00:31:18.581Z,7.19
2017-12-06T00:32:23.024Z,7.17
2017-12-06T00:33:27.376Z,7.22
2017-12-06T00:34:32.457Z,7.21
2017-12-06T00:35:37.315Z,7.16
2017-12-06T00:36:41.874Z,7.07
2017-12-06T00:37:47.116Z,7.08
2017-12-06T00:38:51.674Z,7.08
2017-12-06T00:39:55.922Z,7.06
2017-12-06T00:41:00.572Z,7.06
2017-12-06T00:42:04.993Z,7.10
2017-12-06T00:43:09.235Z,7.12
2017-12-06T00:44:20.484Z,7.13
2017-12-06T00:45:25.104Z,7.13
2017-12-06T00:46:29.522Z,7.12
2017-12-06T00:47:33.770Z,7.12
2017-12-06T00:48:38.187Z,7.17
2017-12-06T00:49:43.320Z,7.12
2017-12-06T00:50:47.614Z,7.05
2017-12-06T00:51:52.042Z,7.03
2017-12-06T00:52:56.308Z,7.05
2017-12-06T00:54:00.587Z,7.05
2017-12-06T00:55:04.797Z,7.05
2017-12-06T00:56:08.995Z,7.11
2017-12-06T00:57:16.091Z,7.13
2017-12-06T00:58:21.311Z,7.07
2017-12-06T01:00:46.028Z,6.99
2017-12-06T01:01:50.777Z,7.03
2017-12-06T01:02:54.988Z,7.07
2017-12-06T01:03:59.630Z,7.06
2017-12-06T01:05:04.829Z,7.05
2017-12-06T01:06:09.046Z,7.05
2017-12-06T01:07:13.356Z,7.02
2017-12-06T01:08:18.063Z,6.99
2017-12-06T01:09:22.629Z,6.94
2017-12-06T01:10:27.204Z,6.94
2017-12-06T01:11:31.503Z,6.99
2017-12-06T01:12:36.528Z,7.03
2017-12-06T01:13:42.637Z,7.01
2017-12-06T01:14:47.368Z,7.06
2017-12-06T01:15:52.099Z,7.08
2017-12-06T01:16:56.764Z,7.12
2017-12-06T01:18:01.729Z,7.10
2017-12-06T01:19:05.962Z,7.08
2017-12-06T01:20:10.224Z,7.07
2017-12-06T01:21:15.158Z,7.16
2017-12-06T01:22:19.416Z,7.13
2017-12-06T01:23:23.627Z,7.05
2017-12-06T01:24:28.261Z,7.07
2017-12-06T01:25:32.478Z,7.07
2017-12-06T01:26:37.235Z,7.07
2017-12-06T01:27:42.986Z,7.01
2017-12-06T01:28:47.262Z,7.00
2017-12-06T01:29:51.792Z,7.04
2017-12-06T01:30:56.145Z,7.05
2017-12-06T01:32:00.733Z,7.05
2017-12-06T01:33:05.309Z,7.07
2017-12-06T01:34:09.525Z,6.99
2017-12-06T01:35:13.945Z,6.99
2017-12-06T01:36:18.202Z,6.98
2017-12-06T01:37:22.586Z,7.04
2017-12-06T01:38:26.812Z,7.00
2017-12-06T01:39:31.433Z,6.99
2017-12-06T01:40:36.065Z,7.01
2017-12-06T01:41:40.291Z,7.00
2017-12-06T01:42:44.632Z,7.04
2017-12-06T01:43:51.596Z,7.08
2017-12-06T01:44:56.673Z,7.06
2017-12-06T01:46:01.862Z,7.05
2017-12-06T01:47:06.280Z,7.03
2017-12-06T01:48:17.570Z,7.07
2017-12-06T01:49:21.774Z,7.11
2017-12-06T01:50:26.108Z,7.06
2017-12-06T01:51:30.364Z,7.07
2017-12-06T01:52:35.080Z,7.02
2017-12-06T01:53:39.418Z,6.95
2017-12-06T01:54:44.595Z,6.97
2017-12-06T01:55:48.855Z,6.98
2017-12-06T01:56:53.359Z,6.97
2017-12-06T01:57:57.603Z,7.02
2017-12-06T01:59:02.215Z,7.04
2017-12-06T02:00:08.052Z,6.99
2017-12-06T02:01:13.623Z,7.00
2017-12-06T02:02:17.821Z,7.00
2017-12-06T02:03:22.109Z,6.97
2017-12-06T02:04:26.653Z,6.97
2017-12-06T02:05:30.943Z,6.94
2017-12-06T02:06:36.053Z,6.95
2017-12-06T02:07:41.138Z,6.94
2017-12-06T02:08:45.327Z,6.91
2017-12-06T02:09:49.538Z,6.93
2017-12-06T02:10:54.065Z,7.01
2017-12-06T02:11:58.314Z,7.01
2017-12-06T02:13:02.702Z,7.01
2017-12-06T02:14:07.018Z,7.00
2017-12-06T02:15:12.792Z,7.07
2017-12-06T02:16:17.495Z,7.01
2017-12-06T02:17:22.034Z,7.00
2017-12-06T02:18:26.380Z,7.03
2017-12-06T02:19:30.681Z,7.00
2017-12-06T02:20:35.841Z,7.08
2017-12-06T02:21:40.998Z,7.15
2017-12-06T02:22:45.273Z,7.10
2017-12-06T02:23:49.786Z,7.10
2017-12-06T02:24:54.353Z,7.08
2017-12-06T02:25:58.608Z,7.11
2017-12-06T02:27:02.856Z,7.12
2017-12-06T02:28:07.114Z,7.07
2017-12-06T02:29:17.532Z,7.13
2017-12-06T02:30:23.031Z,7.15
2017-12-06T02:31:27.286Z,7.16
2017-12-06T02:32:31.890Z,7.14
2017-12-06T02:33:36.355Z,7.12
2017-12-06T02:34:41.134Z,7.05
2017-12-06T02:35:46.821Z,6.99
2017-12-06T02:36:51.048Z,7.02
2017-12-06T02:37:56.206Z,7.09
2017-12-06T02:39:01.138Z,7.03
2017-12-06T02:42:22.256Z,7.00
2017-12-06T02:45:34.330Z,6.99
2017-12-06T02:46:38.613Z,7.03
2017-12-06T02:47:42.914Z,7.02
2017-12-06T02:48:47.147Z,7.03
2017-12-06T02:49:51.396Z,7.13
2017-12-06T02:50:55.919Z,7.05
2017-12-06T02:52:00.205Z,7.08
2017-12-06T02:53:04.515Z,7.10
2017-12-06T02:54:09.088Z,7.06
2017-12-06T02:55:13.415Z,7.06
2017-12-06T02:56:18.080Z,7.04
2017-12-06T02:57:22.296Z,7.14
2017-12-06T02:58:26.732Z,7.12
2017-12-06T02:59:31.218Z,7.11
2017-12-06T03:00:36.751Z,7.16
2017-12-06T03:01:44.817Z,7.16
2017-12-06T03:02:49.034Z,7.15
2017-12-06T03:03:53.336Z,7.05
2017-12-06T03:04:57.600Z,7.08
2017-12-06T03:06:03.001Z,7.09
2017-12-06T03:07:07.230Z,7.01
2017-12-06T03:08:18.348Z,7.05
2017-12-06T03:09:23.037Z,7.04
2017-12-06T03:10:27.268Z,7.02
2017-12-06T03:11:31.472Z,7.06
2017-12-06T03:12:36.678Z,7.06
2017-12-06T03:13:41.533Z,7.07
2017-12-06T03:14:45.798Z,7.07
2017-12-06T03:15:50.312Z,7.04
2017-12-06T03:16:54.832Z,7.09
2017-12-06T03:17:59.233Z,7.06
2017-12-06T03:19:03.816Z,7.11
2017-12-06T03:20:08.066Z,7.14
2017-12-06T03:21:13.190Z,7.12
2017-12-06T03:22:17.506Z,7.08
2017-12-06T03:23:21.720Z,7.16
2017-12-06T03:24:26.373Z,7.17
2017-12-06T03:25:31.065Z,7.14
2017-12-06T03:26:35.296Z,7.10
2017-12-06T03:27:40.487Z,7.06
2017-12-06T03:28:44.816Z,7.07
2017-12-06T03:29:49.538Z,7.02
2017-12-06T03:30:54.181Z,7.00
2017-12-06T03:31:59.728Z,6.99
2017-12-06T03:33:04.137Z,6.97
2017-12-06T03:34:09.111Z,6.96
2017-12-06T03:35:13.305Z,6.96
2017-12-06T03:36:17.572Z,6.95
2017-12-06T03:37:23.436Z,7.07
2017-12-06T03:38:27.741Z,7.02
2017-12-06T03:39:32.260Z,7.05
2017-12-06T03:40:38.892Z,7.01
2017-12-06T03:41:43.381Z,7.08
2017-12-06T03:42:48.234Z,7.06
2017-12-06T03:43:52.876Z,7.04
2017-12-06T03:44:57.129Z,7.01
2017-12-06T03:46:01.556Z,7.05
2017-12-06T03:47:05.769Z,7.06
2017-12-06T03:48:10.006Z,6.99
2017-12-06T03:49:15.111Z,7.05
2017-12-06T03:50:24.871Z,7.06
2017-12-06T03:51:29.113Z,7.07
2017-12-06T03:52:33.938Z,7.07
2017-12-06T03:53:38.290Z,7.04
2017-12-06T03:54:42.518Z,7.02
2017-12-06T03:55:46.737Z,7.01
2017-12-06T03:56:51.291Z,7.04
2017-12-06T03:57:55.929Z,7.04
2017-12-06T03:59:00.377Z,7.09
2017-12-06T04:00:06.322Z,7.05
2017-12-06T04:01:10.773Z,7.10
2017-12-06T04:02:15.548Z,7.20
2017-12-06T04:03:19.834Z,7.17
2017-12-06T04:04:24.130Z,7.08
2017-12-06T04:05:28.458Z,7.05
2017-12-06T04:06:32.757Z,7.07
2017-12-06T04:07:37.179Z,7.06
2017-12-06T04:08:41.744Z,7.09
2017-12-06T04:09:48.168Z,7.12
2017-12-06T04:10:52.605Z,7.10
2017-12-06T04:11:57.177Z,7.06
2017-12-06T04:13:01.449Z,7.10
2017-12-06T04:14:05.684Z,7.08
2017-12-06T04:15:10.930Z,7.04
2017-12-06T04:16:17.341Z,7.12
2017-12-06T04:17:21.563Z,7.13
2017-12-06T04:18:25.740Z,7.07
2017-12-06T04:19:29.994Z,7.00
2017-12-06T04:20:34.288Z,7.01
2017-12-06T04:21:38.519Z,7.03
2017-12-06T04:22:42.809Z,6.98
2017-12-06T04:23:47.352Z,6.99
2017-12-06T04:24:51.679Z,7.02
2017-12-06T04:25:56.018Z,6.96
2017-12-06T04:27:01.057Z,6.98
2017-12-06T04:28:05.342Z,7.01
2017-12-06T04:29:09.571Z,7.08
2017-12-06T04:30:15.648Z,7.05
2017-12-06T04:31:19.965Z,7.05
2017-12-06T04:32:25.551Z,7.08
2017-12-06T04:33:30.648Z,7.07
2017-12-06T04:34:34.925Z,7.03
2017-12-06T04:35:40.276Z,7.00
2017-12-06T04:36:44.487Z,6.97
2017-12-06T04:37:49.057Z,6.93
2017-12-06T04:38:53.392Z,7.00
2017-12-06T04:39:57.573Z,6.97
2017-12-06T04:41:01.940Z,7.00
2017-12-06T04:42:07.690Z,7.05
2017-12-06T04:43:11.964Z,7.07
2017-12-06T04:44:16.468Z,7.10
2017-12-06T04:45:20.717Z,7.10
2017-12-06T04:46:26.576Z,7.08
2017-12-06T04:47:30.825Z,7.18
2017-12-06T04:48:35.073Z,7.12
2017-12-06T04:49:39.465Z,7.13
2017-12-06T04:50:44.116Z,7.12
2017-12-06T04:51:48.880Z,7.13
2017-12-06T04:52:54.024Z,7.18
2017-12-06T04:53:58.214Z,7.20
2017-12-06T04:55:02.431Z,7.23
2017-12-06T04:56:07.672Z,7.22
2017-12-06T04:57:12.292Z,7.28
2017-12-06T04:58:17.429Z,7.32
2017-12-06T04:59:21.695Z,7.30
2017-12-06T05:01:40.330Z,7.43
2017-12-06T05:02:44.890Z,7.42
2017-12-06T05:03:49.444Z,7.39
2017-12-06T05:04:53.648Z,7.33
2017-12-06T05:05:57.932Z,7.42
2017-12-06T05:07:02.292Z,7.44
2017-12-06T05:08:06.612Z,7.38
2017-12-06T05:09:10.906Z,7.35
2017-12-06T05:10:15.407Z,7.33
2017-12-06T05:11:19.609Z,7.30
2017-12-06T05:12:23.892Z,7.36
2017-12-06T05:13:28.076Z,7.40
2017-12-06T05:14:32.255Z,7.41
2017-12-06T05:15:36.604Z,7.42
2017-12-06T05:16:41.661Z,7.42
2017-12-06T05:17:46.175Z,7.35
2017-12-06T05:18:50.482Z,7.33
2017-12-06T05:19:54.713Z,7.31
2017-12-06T05:20:59.164Z,7.36
2017-12-06T05:22:04.176Z,7.41
2017-12-06T05:23:09.525Z,7.36
2017-12-06T05:24:17.951Z,7.40
2017-12-06T05:25:23.965Z,7.45
2017-12-06T05:26:28.452Z,7.38
2017-12-06T05:27:32.657Z,7.39
2017-12-06T05:28:37.401Z,7.34
2017-12-06T05:29:41.655Z,7.36
2017-12-06T05:30:46.152Z,7.37
2017-12-06T05:31:50.460Z,7.38
2017-12-06T05:32:54.707Z,7.38
2017-12-06T05:33:59.053Z,7.38
2017-12-06T05:35:03.918Z,7.39
2017-12-06T05:36:08.156Z,7.41
2017-12-06T05:37:17.135Z,7.42
2017-12-06T05:38:21.533Z,7.45
2017-12-06T05:39:26.107Z,7.53
2017-12-06T05:40:30.618Z,7.58
2017-12-06T05:41:34.904Z,7.53
2017-12-06T05:42:39.182Z,7.53
2017-12-06T05:43:43.430Z,7.46
2017-12-06T05:44:47.821Z,7.43
2017-12-06T05:45:52.513Z,7.42
2017-12-06T05:46:56.752Z,7.40
2017-12-06T05:48:00.980Z,7.44
2017-12-06T05:49:05.207Z,7.35
2017-12-06T05:50:09.824Z,7.38
2017-12-06T05:51:14.313Z,7.45
2017-12-06T05:52:18.718Z,7.46
2017-12-06T05:53:22.933Z,7.48
2017-12-06T05:54:27.362Z,7.45
2017-12-06T05:55:31.644Z,7.47
2017-12-06T05:56:36.349Z,7.55
2017-12-06T05:57:41.615Z,7.47
2017-12-06T05:58:46.036Z,7.41
2017-12-06T06:01:00.727Z,7.40
2017-12-06T06:02:04.944Z,7.41
2017-12-06T06:03:09.174Z,7.35
2017-12-06T06:04:13.424Z,7.36
2017-12-06T06:05:17.733Z,7.42
2017-12-06T06:06:22.070Z,7.41
2017-12-06T06:07:26.370Z,7.42
2017-12-06T06:08:30.665Z,7.41
2017-12-06T06:09:35.276Z,7.43
2017-12-06T06:10:39.599Z,7.42
2017-12-06T06:11:43.937Z,7.42
2017-12-06T06:12:48.898Z,7.40
2017-12-06T06:13:53.205Z,7.35
2017-12-06T06:14:57.446Z,7.33
2017-12-06T06:16:02.046Z,7.36
2017-12-06T06:17:06.642Z,7.32
2017-12-06T06:18:10.880Z,7.40
2017-12-06T06:19:15.223Z,7.45
2017-12-06T06:20:19.468Z,7.42
2017-12-06T06:21:24.139Z,7.39
2017-12-06T06:22:28.388Z,7.32
2017-12-06T06:23:32.642Z,7.33
2017-12-06T06:24:37.178Z,7.32
2017-12-06T06:25:42.389Z,7.35
2017-12-06T06:26:48.188Z,7.41
2017-12-06T06:27:52.517Z,7.43
2017-12-06T06:28:56.745Z,7.43
2017-12-06T06:30:01.038Z,7.47
2017-12-06T06:31:05.889Z,7.47
2017-12-06T06:32:17.330Z,7.44
2017-12-06T06:33:21.667Z,7.39
2017-12-06T06:34:25.889Z,7.34
2017-12-06T06:35:30.201Z,7.31
2017-12-06T06:36:34.481Z,7.38
2017-12-06T06:37:38.963Z,7.38
2017-12-06T06:38:44.396Z,7.49
2017-12-06T06:39:49.161Z,7.47
2017-12-06T06:40:54.157Z,7.49
2017-12-06T06:41:58.410Z,7.41
2017-12-06T06:43:02.685Z,7.46
2017-12-06T06:44:07.508Z,7.38
2017-12-06T06:45:13.435Z,7.44
2017-12-06T06:46:17.754Z,7.43
2017-12-06T06:47:21.990Z,7.40
2017-12-06T06:48:26.324Z,7.42
2017-12-06T06:49:30.529Z,7.46
2017-12-06T06:50:34.765Z,7.48
2017-12-06T06:51:39.138Z,7.53
2017-12-06T06:52:44.308Z,7.59
2017-12-06T06:53:48.668Z,7.52
2017-12-06T06:54:53.461Z,7.51
2017-12-06T06:55:57.680Z,7.48
2017-12-06T06:57:02.052Z,7.46
2017-12-06T06:58:06.288Z,7.50
2017-12-06T06:59:10.592Z,7.55
2017-12-06T07:00:18.152Z,7.59
2017-12-06T07:01:22.424Z,7.60
2017-12-06T07:02:26.787Z,7.49
2017-12-06T07:03:31.808Z,7.51
2017-12-06T07:04:36.020Z,7.47
2017-12-06T07:05:40.303Z,7.47
2017-12-06T07:06:45.008Z,7.52
2017-12-06T07:07:49.305Z,7.56
2017-12-06T07:08:53.637Z,7.57
2017-12-06T07:09:57.872Z,7.53
2017-12-06T07:11:02.121Z,7.53
2017-12-06T07:12:06.822Z,7.53
2017-12-06T07:13:12.284Z,7.49
2017-12-06T07:14:16.644Z,7.47
2017-12-06T07:15:20.869Z,7.44
2017-12-06T07:16:26.303Z,7.46
2017-12-06T07:17:32.616Z,7.46
2017-12-06T07:18:38.679Z,7.44
2017-12-06T07:19:47.580Z,7.43
2017-12-06T07:20:51.873Z,7.45
2017-12-06T07:21:56.257Z,7.45
2017-12-06T07:23:00.642Z,7.53
2017-12-06T07:24:04.996Z,7.58
2017-12-06T07:25:09.915Z,7.58
2017-12-06T07:26:14.366Z,7.56
2017-12-06T07:27:18.684Z,7.52
2017-12-06T07:28:23.020Z,7.53
2017-12-06T07:29:27.253Z,7.58
2017-12-06T07:30:31.679Z,7.59
2017-12-06T07:31:36.584Z,7.56
2017-12-06T07:32:42.107Z,7.57
2017-12-06T07:33:46.488Z,7.59
2017-12-06T07:34:51.383Z,7.59
2017-12-06T07:35:55.630Z,7.54
2017-12-06T07:36:59.977Z,7.54
2017-12-06T07:38:04.625Z,7.49
2017-12-06T07:39:08.832Z,7.48
2017-12-06T07:40:13.165Z,7.53
2017-12-06T07:41:17.411Z,7.48
2017-12-06T07:42:21.663Z,7.52
2017-12-06T07:43:26.000Z,7.52
2017-12-06T07:44:30.600Z,7.47
2017-12-06T07:45:35.145Z,7.49
2017-12-06T07:46:40.058Z,7.46
2017-12-06T07:47:44.412Z,7.44
2017-12-06T07:48:49.324Z,7.52
2017-12-06T07:49:53.579Z,7.51
2017-12-06T07:50:58.096Z,7.54
2017-12-06T07:52:02.329Z,7.56
2017-12-06T07:53:06.876Z,7.58
2017-12-06T07:54:11.056Z,7.60
2017-12-06T07:55:15.261Z,7.57
2017-12-06T07:56:19.527Z,7.56
2017-12-06T07:57:24.089Z,7.53
2017-12-06T07:58:32.400Z,7.55
2017-12-06T07:59:36.693Z,7.54
2017-12-06T08:00:41.675Z,7.64
2017-12-06T08:01:46.309Z,7.58
2017-12-06T08:02:50.573Z,7.57
2017-12-06T08:03:54.999Z,7.54
2017-12-06T08:04:59.291Z,7.48
2017-12-06T08:06:03.505Z,7.48
2017-12-06T08:07:07.676Z,7.45
2017-12-06T08:08:11.896Z,7.42
2017-12-06T08:09:16.540Z,7.41
2017-12-06T08:10:21.577Z,7.48
2017-12-06T08:11:25.923Z,7.45
2017-12-06T08:12:30.185Z,7.44
2017-12-06T08:13:34.467Z,7.51
2017-12-06T08:14:38.787Z,7.53
2017-12-06T08:15:43.566Z,7.53
2017-12-06T08:16:48.084Z,7.51
2017-12-06T08:17:52.322Z,7.57
2017-12-06T08:18:56.633Z,7.53
2017-12-06T08:20:00.978Z,7.59
2017-12-06T08:21:09.504Z,7.58
2017-12-06T08:22:13.803Z,7.60
2017-12-06T08:23:18.108Z,7.60
2017-12-06T08:24:23.490Z,7.57
2017-12-06T08:25:27.863Z,7.62
2017-12-06T08:26:32.152Z,7.64
2017-12-06T08:27:36.437Z,7.67
2017-12-06T08:28:40.721Z,7.65
2017-12-06T08:29:44.977Z,7.61
2017-12-06T08:30:50.609Z,7.68
2017-12-06T08:31:54.857Z,7.67
2017-12-06T08:32:59.390Z,7.63
2017-12-06T08:34:03.596Z,7.59
2017-12-06T08:35:07.929Z,7.61
2017-12-06T08:36:13.603Z,7.62
2017-12-06T08:37:17.872Z,7.60
2017-12-06T08:38:22.114Z,7.62
2017-12-06T08:39:26.873Z,7.63
2017-12-06T08:40:31.225Z,7.63
2017-12-06T08:41:35.620Z,7.63
2017-12-06T08:42:39.834Z,7.61
2017-12-06T08:43:44.084Z,7.59
2017-12-06T08:44:48.307Z,7.63
2017-12-06T08:45:53.087Z,7.65
2017-12-06T08:46:57.475Z,7.68
2017-12-06T08:48:01.669Z,7.73
2017-12-06T08:49:06.049Z,7.66
2017-12-06T08:50:10.273Z,7.69
2017-12-06T08:51:14.516Z,7.72
2017-12-06T08:52:18.936Z,7.79
2017-12-06T08:53:23.173Z,7.74
2017-12-06T08:54:27.550Z,7.71
2017-12-06T08:55:31.851Z,7.64
2017-12-06T08:56:36.140Z,7.63
2017-12-06T08:57:40.540Z,7.70
2017-12-06T08:58:46.128Z,7.70
2017-12-06T08:59:50.346Z,7.68
2017-12-06T09:00:54.616Z,7.61
2017-12-06T09:01:58.911Z,7.62
2017-12-06T09:03:03.166Z,7.67
2017-12-06T09:04:07.609Z,7.76
2017-12-06T09:05:11.826Z,7.73
2017-12-06T09:06:16.037Z,7.73
2017-12-06T09:07:20.332Z,7.71
2017-12-06T09:08:24.601Z,7.78
2017-12-06T09:09:28.916Z,7.77
2017-12-06T09:10:33.554Z,7.77
2017-12-06T09:11:37.818Z,7.73
2017-12-06T09:12:43.113Z,7.74
2017-12-06T09:13:47.436Z,7.84
2017-12-06T09:14:51.689Z,7.75
2017-12-06T09:15:56.146Z,7.83
2017-12-06T09:17:00.461Z,7.85
2017-12-06T09:18:04.994Z,7.85
2017-12-06T09:19:09.256Z,7.87
2017-12-06T09:20:13.503Z,7.81
2017-12-06T09:21:17.833Z,7.73
2017-12-06T09:22:22.132Z,7.76
2017-12-06T09:23:26.665Z,7.71
2017-12-06T09:24:30.921Z,7.74
2017-12-06T09:25:35.191Z,7.80
2017-12-06T09:26:40.327Z,7.73
2017-12-06T09:27:44.620Z,7.77
2017-12-06T09:28:49.811Z,7.84
2017-12-06T09:29:54.398Z,7.87
2017-12-06T09:30:58.674Z,7.91
2017-12-06T09:32:03.006Z,7.88
2017-12-06T09:33:07.304Z,7.82
2017-12-06T09:34:11.788Z,7.83
2017-12-06T09:35:16.046Z,7.88
2017-12-06T09:36:20.681Z,7.87
2017-12-06T09:37:25.323Z,7.86
2017-12-06T09:38:30.030Z,7.81
2017-12-06T09:39:34.757Z,7.81
2017-12-06T09:40:40.142Z,7.82
2017-12-06T09:41:44.661Z,7.86
2017-12-06T09:42:50.345Z,7.85
2017-12-06T09:43:54.920Z,7.85
2017-12-06T09:44:59.270Z,7.93
2017-12-06T09:46:03.945Z,7.82
2017-12-06T09:47:08.272Z,7.83
2017-12-06T09:48:12.789Z,7.86
2017-12-06T09:49:16.997Z,7.96
2017-12-06T09:50:21.334Z,7.95
2017-12-06T09:51:25.576Z,7.88
2017-12-06T09:52:30.023Z,7.83
2017-12-06T09:53:34.399Z,7.81
2017-12-06T09:54:39.284Z,7.80
2017-12-06T09:55:43.620Z,7.78
2017-12-06T09:56:48.926Z,7.80
2017-12-06T09:57:53.339Z,7.81
2017-12-06T09:58:57.656Z,7.84
2017-12-06T10:00:04.433Z,7.82
2017-12-06T10:01:08.994Z,7.82
2017-12-06T10:02:13.485Z,7.89
2017-12-06T10:03:18.222Z,7.93
2017-12-06T10:04:22.571Z,7.94
2017-12-06T10:05:26.823Z,7.94
2017-12-06T10:06:31.448Z,8.00
2017-12-06T10:07:35.844Z,7.97
2017-12-06T10:08:44.057Z,7.97
2017-12-06T10:09:48.414Z,7.97
2017-12-06T10:10:52.638Z,7.94
2017-12-06T10:11:56.912Z,7.91
2017-12-06T10:13:01.234Z,7.87
2017-12-06T10:14:05.452Z,7.88
2017-12-06T10:15:13.106Z,7.86
2017-12-06T10:16:17.484Z,7.87
2017-12-06T10:17:21.763Z,7.89
2017-12-06T10:18:26.310Z,7.96
2017-12-06T10:19:30.506Z,7.95
2017-12-06T10:20:34.852Z,7.92
2017-12-06T10:21:39.429Z,7.91
2017-12-06T10:22:43.732Z,7.95
2017-12-06T10:23:48.111Z,8.00
2017-12-06T10:24:53.917Z,8.05
2017-12-06T10:25:58.598Z,8.08
2017-12-06T10:27:02.936Z,8.03
2017-12-06T10:28:07.200Z,8.04
2017-12-06T10:29:11.578Z,7.95
2017-12-06T10:30:16.622Z,7.93
2017-12-06T10:31:21.200Z,7.94
2017-12-06T10:32:25.854Z,7.91
2017-12-06T10:33:30.361Z,7.90
2017-12-06T10:34:35.056Z,7.91
2017-12-06T10:35:39.376Z,7.93
2017-12-06T10:36:44.596Z,7.93
2017-12-06T10:37:49.849Z,7.94
2017-12-06T10:38:54.056Z,7.98
2017-12-06T10:39:58.282Z,7.96
2017-12-06T10:41:02.688Z,7.93
2017-12-06T10:42:07.258Z,7.98
2017-12-06T10:43:11.543Z,8.01
2017-12-06T10:44:18.154Z,7.96
2017-12-06T10:45:22.871Z,7.95
2017-12-06T10:46:27.635Z,7.97
2017-12-06T10:47:31.943Z,7.94
2017-12-06T10:48:37.185Z,7.91
2017-12-06T10:49:41.580Z,7.93
2017-12-06T10:50:45.864Z,7.97
2017-12-06T10:51:52.929Z,7.96
2017-12-06T10:52:57.303Z,7.93
2017-12-06T10:54:01.563Z,8.01
2017-12-06T10:55:05.848Z,8.08
2017-12-06T10:56:17.876Z,8.16
2017-12-06T10:57:22.261Z,8.19
2017-12-06T10:58:26.591Z,8.19
2017-12-06T10:59:31.299Z,8.07
2017-12-06T11:00:38.687Z,7.99
2017-12-06T11:01:43.640Z,8.03
2017-12-06T11:02:48.835Z,8.13
2017-12-06T11:03:53.978Z,8.26
2017-12-06T11:04:59.232Z,8.19
2017-12-06T11:06:04.183Z,8.14
2017-12-06T11:07:08.429Z,8.13
2017-12-06T11:08:13.090Z,8.13
2017-12-06T11:09:17.434Z,8.10
2017-12-06T11:10:22.277Z,8.14
2017-12-06T11:11:27.222Z,8.13
2017-12-06T11:12:31.485Z,8.12
2017-12-06T11:13:35.884Z,8.13
2017-12-06T11:14:41.267Z,8.10
2017-12-06T11:15:47.812Z,8.20
2017-12-06T11:16:52.851Z,8.23
2017-12-06T11:17:57.240Z,8.22
2017-12-06T11:19:01.811Z,8.25
2017-12-06T11:20:10.598Z,8.19
2017-12-06T11:21:15.213Z,8.11
2017-12-06T11:22:19.473Z,8.13
2017-12-06T11:23:23.714Z,8.16
2017-12-06T11:24:28.207Z,8.08
2017-12-06T11:25:32.762Z,8.04
2017-12-06T11:26:37.067Z,8.10
2017-12-06T11:27:41.992Z,8.12
2017-12-06T11:28:46.415Z,8.12
2017-12-06T11:29:50.648Z,8.11
2017-12-06T11:30:55.121Z,8.11
2017-12-06T11:31:59.768Z,8.05
2017-12-06T11:33:04.044Z,7.99
2017-12-06T11:34:08.406Z,7.97
2017-12-06T11:35:12.628Z,8.06
2017-12-06T11:36:16.969Z,8.10
2017-12-06T11:37:21.252Z,8.12
2017-12-06T11:38:25.484Z,8.27
2017-12-06T11:39:29.767Z,8.23
2017-12-06T11:40:34.269Z,8.22
2017-12-06T11:41:39.663Z,8.27
2017-12-06T11:42:43.959Z,8.25
2017-12-06T11:43:48.243Z,8.20
2017-12-06T11:44:52.767Z,8.19
2017-12-06T11:45:57.353Z,8.21
2017-12-06T11:47:01.951Z,8.28
2017-12-06T11:48:07.331Z,8.27
2017-12-06T11:49:11.554Z,8.18
2017-12-06T11:50:16.916Z,8.20
2017-12-06T11:51:21.200Z,8.28
2017-12-06T11:52:25.526Z,8.33
2017-12-06T11:53:29.867Z,8.29
2017-12-06T11:54:35.247Z,8.28
2017-12-06T11:55:39.520Z,8.26
2017-12-06T11:56:44.330Z,8.26
2017-12-06T11:57:50.016Z,8.29
2017-12-06T11:58:56.491Z,8.30
2017-12-06T12:00:07.963Z,8.26
2017-12-06T12:01:12.510Z,8.28
2017-12-06T12:02:18.507Z,8.36
2017-12-06T12:03:22.845Z,8.31
2017-12-06T12:04:27.108Z,8.35
2017-12-06T12:05:32.332Z,8.32
2017-12-06T12:06:36.627Z,8.31
2017-12-06T12:07:41.170Z,8.35
2017-12-06T12:08:45.581Z,8.33
2017-12-06T12:09:50.707Z,8.30
2017-12-06T12:10:55.117Z,8.42
2017-12-06T12:11:59.405Z,8.48
2017-12-06T12:13:03.704Z,8.44
2017-12-06T12:14:08.317Z,8.43
2017-12-06T12:15:18.756Z,8.45
2017-12-06T12:16:23.191Z,8.50
2017-12-06T12:17:28.862Z,8.50
2017-12-06T12:18:33.215Z,8.49
2017-12-06T12:19:37.882Z,8.53
2017-12-06T12:20:42.150Z,8.49
2017-12-06T12:21:46.432Z,8.39
2017-12-06T12:22:53.320Z,8.36
2017-12-06T12:23:57.593Z,8.32
2017-12-06T12:25:01.975Z,8.39
2017-12-06T12:26:07.525Z,8.39
2017-12-06T12:27:11.815Z,8.40
2017-12-06T12:28:16.203Z,8.51
2017-12-06T12:29:20.489Z,8.53
2017-12-06T12:30:25.310Z,8.51
2017-12-06T12:31:30.266Z,8.52
2017-12-06T12:32:34.516Z,8.45
2017-12-06T12:33:38.882Z,8.40
2017-12-06T12:34:44.744Z,8.41
2017-12-06T12:35:49.021Z,8.35
2017-12-06T12:36:53.275Z,8.35
2017-12-06T12:37:58.108Z,8.35
2017-12-06T12:39:02.605Z,8.32
2017-12-06T12:40:07.403Z,8.35
2017-12-06T12:41:11.700Z,8.36
2017-12-06T12:42:18.148Z,8.42
2017-12-06T12:43:22.504Z,8.47
2017-12-06T12:44:26.828Z,8.49
2017-12-06T12:45:31.514Z,8.49
2017-12-06T12:46:35.898Z,8.43
2017-12-06T12:47:40.231Z,8.36
2017-12-06T12:48:44.540Z,8.43
2017-12-06T12:49:48.800Z,8.41
2017-12-06T12:50:53.221Z,8.36
2017-12-06T12:51:58.235Z,8.45
2017-12-06T12:53:02.604Z,8.44
2017-12-06T12:54:06.882Z,8.35
2017-12-06T12:55:11.248Z,8.35
2017-12-06T12:56:16.985Z,8.33
2017-12-06T12:57:22.326Z,8.25
2017-12-06T12:58:28.365Z,8.25
2017-12-06T12:59:33.893Z,8.28
2017-12-06T13:00:40.351Z,8.24
2017-12-06T13:01:46.327Z,8.24
2017-12-06T13:02:51.345Z,8.23
2017-12-06T13:03:55.617Z,8.18
2017-12-06T13:04:59.921Z,8.16
2017-12-06T13:06:08.767Z,8.17
2017-12-06T13:07:13.147Z,8.16
2017-12-06T13:08:17.881Z,8.16
2017-12-06T13:09:22.433Z,8.16
2017-12-06T13:10:26.699Z,8.22
2017-12-06T13:11:31.364Z,8.16
2017-12-06T13:12:35.649Z,8.17
2017-12-06T13:13:39.916Z,8.17
2017-12-06T13:14:44.886Z,8.16
2017-12-06T13:15:49.905Z,8.14
2017-12-06T13:16:54.505Z,8.12
2017-12-06T13:17:58.836Z,8.10
2017-12-06T13:19:04.709Z,8.10
2017-12-06T13:20:09.343Z,8.16
2017-12-06T13:21:14.137Z,8.15
2017-12-06T13:22:18.553Z,8.16
2017-12-06T13:23:22.907Z,8.16
2017-12-06T13:24:27.318Z,8.15
2017-12-06T13:25:31.875Z,8.13
2017-12-06T13:26:37.771Z,8.18
2017-12-06T13:27:42.161Z,8.26
2017-12-06T13:28:46.512Z,8.23
2017-12-06T13:29:53.454Z,8.24
2017-12-06T13:30:57.783Z,8.25
2017-12-06T13:32:02.791Z,8.22
2017-12-06T13:33:08.324Z,8.25
2017-12-06T13:34:12.962Z,8.28
2017-12-06T13:35:18.488Z,8.29
2017-12-06T13:36:23.642Z,8.28
2017-12-06T13:37:28.230Z,8.28
2017-12-06T13:38:32.530Z,8.32
2017-12-06T13:39:36.849Z,8.28
2017-12-06T13:40:42.418Z,8.26
2017-12-06T13:41:47.341Z,8.24
2017-12-06T13:42:52.638Z,8.24
2017-12-06T13:43:57.821Z,8.24
2017-12-06T13:45:04.262Z,8.25
2017-12-06T13:46:10.819Z,8.31
2017-12-06T13:47:15.461Z,8.31
2017-12-06T13:48:20.216Z,8.31
2017-12-06T13:49:26.559Z,8.34
2017-12-06T13:50:30.940Z,8.43
2017-12-06T13:51:35.408Z,8.37
2017-12-06T13:52:46.874Z,8.37
2017-12-06T13:53:52.593Z,8.35
2017-12-06T13:54:56.972Z,8.38
2017-12-06T13:56:01.389Z,8.40
2017-12-06T13:57:06.242Z,8.40
2017-12-06T13:58:10.881Z,8.39
2017-12-06T13:59:15.800Z,8.38
2017-12-06T14:00:20.575Z,8.42
2017-12-06T14:01:27.303Z,8.37
2017-12-06T14:02:31.721Z,8.36
2017-12-06T14:03:36.368Z,8.35
2017-12-06T14:04:40.706Z,8.43
2017-12-06T14:05:44.991Z,8.43
2017-12-06T14:06:58.972Z,8.43
2017-12-06T14:08:03.338Z,8.38
2017-12-06T14:09:07.707Z,8.33
2017-12-06T14:10:12.005Z,8.30
2017-12-06T14:11:16.422Z,8.32
2017-12-06T14:12:20.873Z,8.37
2017-12-06T14:13:29.438Z,8.39
2017-12-06T14:14:33.750Z,8.33
2017-12-06T14:15:39.585Z,8.29
2017-12-06T14:16:44.935Z,8.32
2017-12-06T14:17:49.406Z,8.31
2017-12-06T14:18:53.687Z,8.30
2017-12-06T14:19:57.996Z,8.32
2017-12-06T14:21:02.737Z,8.30
2017-12-06T14:22:07.119Z,8.36
2017-12-06T14:23:11.439Z,8.37
2017-12-06T14:24:17.452Z,8.37
2017-12-06T14:25:21.944Z,8.34
2017-12-06T14:26:26.446Z,8.37
2017-12-06T14:27:32.113Z,8.44
2017-12-06T14:28:36.358Z,8.41
2017-12-06T14:29:41.228Z,8.38
2017-12-06T14:30:45.549Z,8.41
2017-12-06T14:31:51.407Z,8.36